createdAt,value
2023-02-06T00:00:39.441Z,0.00
2023-02-06T00:01:39.437Z,0.00
2023-02-06T00:02:39.448Z,0.00
2023-02-06T00:03:39.418Z,0.00
2023-02-06T00:04:39.407Z,0.00
2023-02-06T00:05:39.405Z,0.00
2023-02-06T00:06:39.379Z,0.00
2023-02-06T00:07:39.391Z,0.00
2023-02-06T00:08:39.387Z,0.00
2023-02-06T00:09:39.380Z,0.00
2023-02-06T00:10:39.356Z,0.00
2023-02-06T00:11:39.321Z,0.00
2023-02-06T00:12:39.353Z,0.00
2023-02-06T00:13:39.349Z,0.00
2023-02-06T00:14:39.316Z,0.00
2023-02-06T00:15:39.705Z,0.00
2023-02-06T00:16:39.277Z,0.00
2023-02-06T00:17:39.274Z,0.00
2023-02-06T00:18:39.303Z,0.00
2023-02-06T00:19:39.256Z,0.00
2023-02-06T00:20:39.245Z,0.00
2023-02-06T00:21:39.242Z,0.00
2023-02-06T00:22:39.220Z,0.00
2023-02-06T00:23:39.228Z,0.00
2023-02-06T00:24:39.205Z,0.00
2023-02-06T00:25:39.240Z,0.00
2023-02-06T00:26:39.193Z,0.00
2023-02-06T00:27:39.176Z,0.00
2023-02-06T00:28:39.229Z,0.00
2023-02-06T00:29:39.153Z,0.00
2023-02-06T00:30:39.197Z,0.00
2023-02-06T00:31:39.205Z,0.00
2023-02-06T00:32:39.171Z,0.00
2023-02-06T00:33:39.126Z,0.00
2023-02-06T00:34:39.094Z,0.00
2023-02-06T00:35:39.116Z,0.00
2023-02-06T00:36:39.088Z,0.00
2023-02-06T00:37:39.084Z,0.00
2023-02-06T00:38:39.082Z,0.00
2023-02-06T00:39:39.070Z,0.00
2023-02-06T00:40:39.065Z,0.00
2023-02-06T00:41:39.056Z,0.00
2023-02-06T00:42:39.029Z,0.00
2023-02-06T00:43:39.046Z,0.00
2023-02-06T00:44:39.031Z,0.00
2023-02-06T00:45:39.051Z,0.00
2023-02-06T00:46:39.028Z,0.00
2023-02-06T00:47:38.989Z,0.00
2023-02-06T00:48:38.992Z,0.00
2023-02-06T00:49:39.031Z,0.00
2023-02-06T00:50:38.983Z,0.00
2023-02-06T00:51:38.987Z,0.00
2023-02-06T00:52:38.921Z,0.00
2023-02-06T00:53:38.935Z,0.00
2023-02-06T00:54:38.924Z,0.00
2023-02-06T00:55:38.910Z,0.00
2023-02-06T00:56:38.893Z,0.00
2023-02-06T00:57:39.021Z,0.00
2023-02-06T00:58:38.879Z,0.00
2023-02-06T00:59:38.857Z,0.00
2023-02-06T01:00:38.860Z,0.00
2023-02-06T01:01:38.886Z,0.00
2023-02-06T01:02:38.897Z,0.00
2023-02-06T01:03:38.859Z,0.00
2023-02-06T01:04:38.827Z,0.00
2023-02-06T01:05:39.045Z,0.00
2023-02-06T01:06:39.118Z,0.00
2023-02-06T01:07:38.824Z,0.00
2023-02-06T01:08:38.805Z,0.00
2023-02-06T01:09:38.778Z,0.00
2023-02-06T01:10:38.738Z,0.00
2023-02-06T01:11:38.746Z,0.00
2023-02-06T01:12:38.723Z,0.00
2023-02-06T01:13:38.755Z,0.00
2023-02-06T01:14:38.809Z,0.00
2023-02-06T01:15:38.699Z,0.00
2023-02-06T01:16:38.687Z,0.00
2023-02-06T01:17:38.692Z,0.00
2023-02-06T01:18:38.673Z,0.00
2023-02-06T01:19:38.689Z,0.00
2023-02-06T01:20:38.680Z,0.00
2023-02-06T01:21:38.647Z,0.00
2023-02-06T01:22:38.619Z,0.00
2023-02-06T01:23:38.660Z,0.00
2023-02-06T01:24:38.615Z,0.00
2023-02-06T01:25:38.622Z,0.00
2023-02-06T01:26:38.581Z,0.00
2023-02-06T01:27:38.631Z,0.00
2023-02-06T01:28:38.576Z,0.00
2023-02-06T01:29:38.563Z,0.00
2023-02-06T01:30:38.587Z,0.00
2023-02-06T01:31:38.598Z,0.00
2023-02-06T01:32:38.544Z,0.00
2023-02-06T01:33:38.507Z,0.00
2023-02-06T01:34:38.536Z,0.00
2023-02-06T01:35:38.528Z,0.00
2023-02-06T01:36:38.496Z,0.00
2023-02-06T01:37:38.531Z,0.00
2023-02-06T01:38:38.469Z,0.00
2023-02-06T01:39:38.469Z,0.00
2023-02-06T01:40:38.490Z,0.00
2023-02-06T01:41:38.440Z,0.00
2023-02-06T01:42:38.426Z,0.00
2023-02-06T01:43:38.435Z,0.00
2023-02-06T01:44:38.440Z,0.00
2023-02-06T01:45:38.493Z,0.00
2023-02-06T01:46:38.420Z,0.00
2023-02-06T01:47:38.406Z,0.00
2023-02-06T01:48:38.374Z,0.00
2023-02-06T01:49:38.402Z,0.00
2023-02-06T01:50:38.345Z,0.00
2023-02-06T01:51:38.354Z,0.00
2023-02-06T01:52:38.362Z,0.00
2023-02-06T01:53:38.344Z,0.00
2023-02-06T01:54:38.332Z,0.00
2023-02-06T01:55:38.562Z,0.00
2023-02-06T01:56:38.302Z,0.00
2023-02-06T01:57:38.321Z,0.00
2023-02-06T01:58:38.263Z,0.00
2023-02-06T01:59:38.258Z,0.00
2023-02-06T02:00:38.324Z,0.00
2023-02-06T02:01:38.288Z,0.00
2023-02-06T02:02:38.236Z,0.00
2023-02-06T02:03:38.231Z,0.00
2023-02-06T02:04:38.212Z,0.00
2023-02-06T02:05:38.459Z,0.00
2023-02-06T02:06:38.201Z,0.00
2023-02-06T02:07:38.199Z,0.00
2023-02-06T02:08:38.184Z,0.00
2023-02-06T02:09:38.194Z,0.00
2023-02-06T02:10:38.167Z,0.00
2023-02-06T02:11:38.188Z,0.00
2023-02-06T02:12:38.150Z,0.00
2023-02-06T02:13:38.130Z,0.00
2023-02-06T02:14:38.116Z,0.00
2023-02-06T02:15:38.147Z,0.00
2023-02-06T02:16:38.150Z,0.00
2023-02-06T02:17:38.121Z,0.00
2023-02-06T02:18:38.072Z,0.00
2023-02-06T02:19:38.084Z,0.00
2023-02-06T02:20:38.067Z,0.00
2023-02-06T02:21:38.064Z,0.00
2023-02-06T02:22:38.051Z,0.00
2023-02-06T02:23:38.060Z,0.00
2023-02-06T02:24:38.027Z,0.00
2023-02-06T02:25:38.262Z,0.00
2023-02-06T02:26:38.037Z,0.00
2023-02-06T02:27:38.051Z,0.00
2023-02-06T02:28:37.990Z,0.00
2023-02-06T02:29:37.986Z,0.00
2023-02-06T02:30:38.033Z,0.00
2023-02-06T02:31:38.030Z,0.00
2023-02-06T02:32:37.948Z,0.00
2023-02-06T02:33:37.942Z,0.00
2023-02-06T02:34:37.922Z,0.00
2023-02-06T02:35:38.242Z,0.00
2023-02-06T02:36:37.941Z,0.00
2023-02-06T02:37:37.939Z,0.00
2023-02-06T02:38:37.877Z,0.00
2023-02-06T02:39:37.912Z,0.00
2023-02-06T02:40:37.890Z,0.00
2023-02-06T02:41:37.874Z,0.00
2023-02-06T02:42:37.855Z,0.00
2023-02-06T02:43:37.881Z,0.00
2023-02-06T02:44:37.843Z,0.00
2023-02-06T02:45:38.113Z,0.00
2023-02-06T02:46:37.818Z,0.00
2023-02-06T02:47:37.808Z,0.00
2023-02-06T02:48:37.789Z,0.00
2023-02-06T02:49:37.796Z,0.00
2023-02-06T02:50:37.768Z,0.00
2023-02-06T02:51:37.777Z,0.00
2023-02-06T02:52:37.746Z,0.00
2023-02-06T02:53:37.749Z,0.00
2023-02-06T02:54:37.735Z,0.00
2023-02-06T02:55:37.900Z,0.00
2023-02-06T02:56:37.702Z,0.00
2023-02-06T02:57:37.720Z,0.00
2023-02-06T02:58:37.685Z,0.00
2023-02-06T02:59:37.674Z,0.00
2023-02-06T03:00:37.710Z,0.00
2023-02-06T03:01:37.675Z,0.00
2023-02-06T03:02:37.645Z,0.00
2023-02-06T03:03:37.674Z,0.00
2023-02-06T03:04:37.619Z,0.00
2023-02-06T03:05:37.948Z,0.00
2023-02-06T03:06:37.626Z,0.00
2023-02-06T03:07:37.611Z,0.00
2023-02-06T03:08:37.576Z,0.00
2023-02-06T03:09:37.586Z,0.00
2023-02-06T03:10:37.574Z,0.00
2023-02-06T03:11:37.572Z,0.00
2023-02-06T03:12:37.597Z,0.00
2023-02-06T03:13:37.534Z,0.00
2023-02-06T03:14:37.579Z,0.00
2023-02-06T03:15:37.847Z,0.00
2023-02-06T03:16:37.540Z,0.00
2023-02-06T03:17:37.516Z,0.00
2023-02-06T03:18:37.498Z,0.00
2023-02-06T03:19:37.522Z,0.00
2023-02-06T03:20:37.492Z,0.00
2023-02-06T03:21:37.469Z,0.00
2023-02-06T03:22:37.483Z,0.00
2023-02-06T03:23:37.710Z,0.00
2023-02-06T03:24:37.428Z,0.00
2023-02-06T03:25:38.226Z,0.00
2023-02-06T03:26:37.420Z,0.00
2023-02-06T03:27:37.420Z,0.00
2023-02-06T03:28:37.402Z,0.00
2023-02-06T03:29:37.440Z,0.00
2023-02-06T03:30:37.380Z,0.00
2023-02-06T03:31:37.453Z,0.00
2023-02-06T03:32:37.360Z,0.00
2023-02-06T03:33:37.350Z,0.00
2023-02-06T03:34:37.399Z,0.00
2023-02-06T03:35:37.618Z,0.00
2023-02-06T03:36:37.362Z,0.00
2023-02-06T03:37:37.298Z,0.00
2023-02-06T03:38:37.290Z,0.00
2023-02-06T03:39:37.326Z,0.00
2023-02-06T03:40:37.283Z,0.00
2023-02-06T03:41:37.305Z,0.00
2023-02-06T03:42:37.293Z,0.00
2023-02-06T03:43:37.257Z,0.00
2023-02-06T03:44:37.240Z,0.00
2023-02-06T03:45:37.591Z,0.00
2023-02-06T03:46:37.230Z,0.00
2023-02-06T03:47:37.228Z,0.00
2023-02-06T03:48:37.221Z,0.00
2023-02-06T03:49:37.199Z,0.00
2023-02-06T03:50:37.202Z,0.00
2023-02-06T03:51:37.183Z,0.00
2023-02-06T03:52:37.156Z,0.00
2023-02-06T03:53:37.176Z,0.00
2023-02-06T03:54:37.142Z,0.00
2023-02-06T03:55:37.552Z,0.00
2023-02-06T03:56:37.157Z,0.00
2023-02-06T03:57:38.375Z,0.00
2023-02-06T03:58:37.122Z,0.00
2023-02-06T03:59:37.195Z,0.00
2023-02-06T04:00:37.117Z,0.00
2023-02-06T04:01:37.132Z,0.00
2023-02-06T04:02:37.155Z,0.00
2023-02-06T04:03:37.066Z,0.00
2023-02-06T04:04:37.043Z,0.00
2023-02-06T04:05:37.487Z,0.00
2023-02-06T04:06:37.038Z,0.00
2023-02-06T04:07:37.111Z,0.00
2023-02-06T04:08:37.017Z,0.00
2023-02-06T04:09:37.065Z,0.00
2023-02-06T04:10:36.994Z,0.00
2023-02-06T04:11:37.002Z,0.00
2023-02-06T04:12:36.980Z,0.00
2023-02-06T04:13:36.976Z,0.00
2023-02-06T04:14:36.972Z,0.00
2023-02-06T04:15:37.288Z,0.00
2023-02-06T04:16:36.994Z,0.00
2023-02-06T04:17:53.472Z,0.00
2023-02-06T04:18:36.968Z,0.00
2023-02-06T04:19:36.986Z,0.00
2023-02-06T04:20:36.908Z,0.00
2023-02-06T04:21:36.921Z,0.00
2023-02-06T04:22:36.913Z,0.00
2023-02-06T04:23:36.863Z,0.00
2023-02-06T04:24:36.898Z,0.00
2023-02-06T04:25:37.189Z,0.00
2023-02-06T04:26:36.834Z,0.00
2023-02-06T04:27:36.850Z,0.00
2023-02-06T04:28:36.815Z,0.00
2023-02-06T04:29:36.808Z,0.00
2023-02-06T04:30:36.862Z,0.00
2023-02-06T04:31:36.897Z,0.00
2023-02-06T04:32:36.824Z,0.00
2023-02-06T04:33:36.781Z,0.00
2023-02-06T04:34:36.756Z,0.00
2023-02-06T04:35:37.064Z,0.00
2023-02-06T04:36:36.749Z,0.00
2023-02-06T04:37:36.752Z,0.00
2023-02-06T04:38:36.726Z,0.00
2023-02-06T04:39:36.711Z,0.00
2023-02-06T04:40:36.704Z,0.00
2023-02-06T04:41:36.727Z,0.00
2023-02-06T04:42:36.692Z,0.00
2023-02-06T04:43:36.666Z,0.00
2023-02-06T04:44:36.694Z,0.00
2023-02-06T04:45:36.931Z,0.00
2023-02-06T04:46:36.647Z,0.00
2023-02-06T04:47:36.620Z,0.00
2023-02-06T04:48:36.636Z,0.00
2023-02-06T04:49:36.609Z,0.00
2023-02-06T04:50:36.602Z,0.00
2023-02-06T04:51:36.597Z,0.00
2023-02-06T04:52:36.589Z,0.00
2023-02-06T04:53:36.587Z,0.00
2023-02-06T04:54:36.571Z,0.00
2023-02-06T04:55:36.925Z,0.00
2023-02-06T04:56:36.555Z,0.00
2023-02-06T04:57:36.532Z,0.00
2023-02-06T04:58:36.543Z,0.00
2023-02-06T04:59:36.514Z,0.00
2023-02-06T05:00:38.668Z,0.00
2023-02-06T05:01:36.551Z,0.00
2023-02-06T05:02:36.558Z,0.00
2023-02-06T05:03:36.488Z,0.00
2023-02-06T05:04:36.481Z,0.00
2023-02-06T05:05:36.655Z,0.00
2023-02-06T05:06:36.485Z,0.00
2023-02-06T05:07:36.725Z,0.00
2023-02-06T05:08:36.431Z,0.00
2023-02-06T05:09:36.465Z,0.00
2023-02-06T05:10:36.402Z,0.00
2023-02-06T05:11:36.391Z,0.00
2023-02-06T05:12:36.390Z,0.00
2023-02-06T05:13:36.377Z,0.00
2023-02-06T05:14:36.353Z,0.00
2023-02-06T05:15:36.814Z,0.00
2023-02-06T05:16:36.359Z,0.00
2023-02-06T05:17:37.217Z,0.00
2023-02-06T05:18:36.362Z,0.00
2023-02-06T05:19:36.330Z,0.00
2023-02-06T05:20:36.301Z,0.00
2023-02-06T05:21:36.311Z,0.00
2023-02-06T05:22:36.312Z,0.00
2023-02-06T05:23:36.342Z,0.00
2023-02-06T05:24:36.289Z,0.00
2023-02-06T05:25:36.630Z,0.00
2023-02-06T05:26:36.240Z,0.00
2023-02-06T05:27:36.248Z,0.00
2023-02-06T05:28:36.241Z,0.00
2023-02-06T05:29:36.220Z,0.00
2023-02-06T05:30:36.245Z,0.00
2023-02-06T05:31:36.426Z,0.00
2023-02-06T05:32:36.231Z,0.00
2023-02-06T05:33:36.289Z,0.00
2023-02-06T05:34:36.181Z,0.00
2023-02-06T05:35:36.473Z,0.00
2023-02-06T05:36:36.150Z,0.00
2023-02-06T05:37:36.184Z,0.00
2023-02-06T05:38:36.136Z,0.00
2023-02-06T05:39:36.110Z,0.00
2023-02-06T05:40:36.162Z,0.00
2023-02-06T05:41:36.122Z,0.00
2023-02-06T05:42:36.108Z,0.00
2023-02-06T05:43:36.069Z,0.00
2023-02-06T05:44:36.068Z,0.00
2023-02-06T05:45:36.289Z,0.00
2023-02-06T05:46:36.088Z,0.00
2023-02-06T05:47:36.068Z,0.00
2023-02-06T05:48:36.026Z,0.00
2023-02-06T05:49:36.028Z,0.00
2023-02-06T05:50:36.013Z,0.00
2023-02-06T05:51:36.008Z,0.00
2023-02-06T05:52:36.000Z,0.00
2023-02-06T05:53:35.989Z,0.00
2023-02-06T05:54:36.005Z,0.00
2023-02-06T05:55:36.299Z,0.00
2023-02-06T05:56:35.972Z,0.00
2023-02-06T05:57:35.950Z,0.00
2023-02-06T05:58:35.942Z,0.00
2023-02-06T05:59:35.963Z,0.00
2023-02-06T06:00:35.950Z,0.00
2023-02-06T06:01:35.904Z,0.00
2023-02-06T06:02:35.907Z,0.00
2023-02-06T06:03:35.972Z,0.00
2023-02-06T06:04:35.939Z,0.00
2023-02-06T06:05:36.227Z,0.00
2023-02-06T06:06:35.873Z,0.00
2023-02-06T06:07:35.838Z,0.00
2023-02-06T06:08:35.880Z,0.00
2023-02-06T06:09:35.850Z,0.00
2023-02-06T06:10:35.865Z,0.00
2023-02-06T06:11:35.856Z,0.00
2023-02-06T06:12:35.865Z,0.00
2023-02-06T06:13:35.816Z,0.00
2023-02-06T06:14:35.806Z,0.00
2023-02-06T06:15:36.037Z,0.00
2023-02-06T06:16:35.760Z,0.00
2023-02-06T06:17:35.795Z,0.00
2023-02-06T06:18:35.750Z,0.00
2023-02-06T06:19:35.725Z,0.00
2023-02-06T06:20:35.734Z,0.00
2023-02-06T06:21:35.738Z,0.00
2023-02-06T06:22:35.704Z,0.00
2023-02-06T06:23:35.704Z,0.00
2023-02-06T06:24:35.689Z,0.00
2023-02-06T06:25:36.001Z,0.00
2023-02-06T06:26:35.680Z,0.00
2023-02-06T06:27:35.675Z,0.00
2023-02-06T06:28:35.613Z,0.00
2023-02-06T06:29:35.648Z,0.00
2023-02-06T06:30:35.853Z,0.00
2023-02-06T06:31:35.591Z,0.00
2023-02-06T06:32:35.564Z,0.00
2023-02-06T06:33:35.569Z,0.00
2023-02-06T06:34:35.548Z,0.00
2023-02-06T06:35:35.841Z,0.00
2023-02-06T06:36:35.577Z,0.00
2023-02-06T06:37:35.533Z,0.00
2023-02-06T06:38:35.519Z,0.00
2023-02-06T06:39:35.547Z,0.00
2023-02-06T06:40:35.504Z,0.00
2023-02-06T06:41:35.460Z,0.00
2023-02-06T06:42:35.467Z,0.00
2023-02-06T06:43:35.467Z,0.00
2023-02-06T06:44:35.448Z,0.00
2023-02-06T06:45:35.831Z,0.00
2023-02-06T06:46:35.454Z,0.00
2023-02-06T06:47:35.665Z,0.00
2023-02-06T06:48:35.419Z,0.00
2023-02-06T06:49:35.388Z,0.00
2023-02-06T06:50:35.405Z,0.00
2023-02-06T06:51:35.363Z,0.00
2023-02-06T06:52:35.594Z,0.00
2023-02-06T06:53:35.478Z,0.00
2023-02-06T06:54:35.354Z,0.00
2023-02-06T06:55:36.642Z,0.00
2023-02-06T06:56:35.445Z,0.00
2023-02-06T06:57:35.853Z,0.00
2023-02-06T06:58:35.443Z,0.00
2023-02-06T06:59:35.347Z,0.00
2023-02-06T07:00:35.342Z,0.00
2023-02-06T07:01:35.281Z,0.00
2023-02-06T07:02:35.374Z,0.00
2023-02-06T07:03:35.352Z,0.00
2023-02-06T07:04:35.382Z,0.00
2023-02-06T07:05:35.606Z,0.00
2023-02-06T07:06:35.319Z,0.00
2023-02-06T07:07:35.371Z,0.00
2023-02-06T07:08:35.424Z,0.00
2023-02-06T07:09:35.243Z,0.00
2023-02-06T07:10:35.259Z,0.00
2023-02-06T07:11:35.159Z,0.00
2023-02-06T07:12:35.770Z,0.00
2023-02-06T07:13:35.298Z,0.00
2023-02-06T07:14:35.134Z,0.00
2023-02-06T07:15:35.549Z,0.00
2023-02-06T07:16:35.248Z,0.00
2023-02-06T07:17:35.117Z,0.00
2023-02-06T07:18:35.205Z,0.00
2023-02-06T07:19:35.170Z,0.00
2023-02-06T07:20:35.098Z,0.00
2023-02-06T07:21:35.056Z,0.00
2023-02-06T07:22:35.069Z,0.00
2023-02-06T07:23:35.159Z,5.62
2023-02-06T07:24:35.047Z,5.62
2023-02-06T07:25:35.498Z,5.62
2023-02-06T07:26:35.102Z,5.62
2023-02-06T07:27:35.032Z,5.62
2023-02-06T07:28:35.049Z,5.62
2023-02-06T07:29:35.197Z,5.62
2023-02-06T07:30:35.038Z,5.62
2023-02-06T07:31:35.013Z,5.62
2023-02-06T07:32:35.002Z,11.25
2023-02-06T07:33:34.973Z,11.25
2023-02-06T07:34:34.953Z,11.25
2023-02-06T07:35:35.188Z,11.25
2023-02-06T07:36:34.977Z,11.25
2023-02-06T07:37:34.925Z,11.25
2023-02-06T07:38:34.910Z,11.25
2023-02-06T07:39:34.909Z,11.25
2023-02-06T07:40:44.677Z,16.88
2023-02-06T07:41:34.879Z,16.88
2023-02-06T07:42:34.884Z,16.88
2023-02-06T07:43:34.909Z,16.88
2023-02-06T07:44:34.829Z,16.88
2023-02-06T07:45:35.349Z,16.88
2023-02-06T07:46:34.870Z,16.88
2023-02-06T07:47:34.825Z,11.25
2023-02-06T07:48:34.802Z,11.25
2023-02-06T07:49:34.793Z,11.25
2023-02-06T07:50:34.817Z,11.25
2023-02-06T07:51:34.779Z,11.25
2023-02-06T07:52:34.766Z,11.25
2023-02-06T07:53:34.820Z,11.25
2023-02-06T07:54:34.753Z,11.25
2023-02-06T07:55:35.095Z,11.25
2023-02-06T07:56:34.730Z,11.25
2023-02-06T07:57:34.704Z,11.25
2023-02-06T07:58:34.719Z,11.25
2023-02-06T07:59:34.695Z,11.25
2023-02-06T08:00:34.692Z,11.25
2023-02-06T08:01:34.731Z,11.25
2023-02-06T08:02:34.656Z,16.88
2023-02-06T08:03:34.683Z,16.88
2023-02-06T08:04:34.756Z,16.88
2023-02-06T08:05:34.828Z,16.88
2023-02-06T08:06:34.651Z,16.88
2023-02-06T08:07:34.636Z,16.88
2023-02-06T08:08:34.623Z,16.88
2023-02-06T08:09:34.613Z,16.88
2023-02-06T08:10:34.603Z,16.88
2023-02-06T08:11:34.604Z,16.88
2023-02-06T08:12:34.632Z,16.88
2023-02-06T08:13:34.556Z,16.88
2023-02-06T08:14:34.543Z,16.88
2023-02-06T08:15:34.982Z,16.88
2023-02-06T08:16:34.654Z,22.50
2023-02-06T08:17:34.527Z,22.50
2023-02-06T08:18:34.519Z,22.50
2023-02-06T08:19:34.531Z,22.50
2023-02-06T08:20:34.507Z,22.50
2023-02-06T08:21:34.482Z,22.50
2023-02-06T08:22:34.454Z,22.50
2023-02-06T08:23:34.475Z,22.50
2023-02-06T08:24:34.458Z,22.50
2023-02-06T08:25:34.963Z,22.50
2023-02-06T08:26:34.420Z,22.50
2023-02-06T08:27:34.448Z,22.50
2023-02-06T08:28:34.425Z,22.50
2023-02-06T08:29:34.416Z,22.50
2023-02-06T08:30:34.470Z,16.88
2023-02-06T08:31:34.563Z,16.88
2023-02-06T08:32:34.384Z,16.88
2023-02-06T08:33:34.367Z,16.88
2023-02-06T08:34:34.380Z,16.88
2023-02-06T08:35:34.725Z,16.88
2023-02-06T08:36:34.372Z,16.88
2023-02-06T08:37:34.315Z,16.88
2023-02-06T08:38:34.307Z,16.88
2023-02-06T08:39:34.304Z,16.88
2023-02-06T08:40:34.302Z,16.88
2023-02-06T08:41:34.299Z,16.88
2023-02-06T08:42:34.292Z,16.88
2023-02-06T08:43:34.257Z,16.88
2023-02-06T08:44:34.267Z,16.88
2023-02-06T08:45:34.467Z,16.88
2023-02-06T08:46:34.271Z,16.88
2023-02-06T08:47:34.229Z,16.88
2023-02-06T08:48:34.196Z,16.88
2023-02-06T08:49:34.193Z,16.88
2023-02-06T08:50:34.471Z,16.88
2023-02-06T08:51:34.235Z,16.88
2023-02-06T08:52:34.192Z,22.50
2023-02-06T08:53:34.283Z,22.50
2023-02-06T08:54:36.364Z,22.50
2023-02-06T08:55:34.147Z,22.50
2023-02-06T08:56:34.132Z,22.50
2023-02-06T08:57:34.149Z,22.50
2023-02-06T08:58:34.127Z,22.50
2023-02-06T08:59:34.115Z,28.12
2023-02-06T09:00:34.112Z,28.12
2023-02-06T09:01:34.147Z,28.12
2023-02-06T09:02:34.157Z,33.75
2023-02-06T09:03:34.052Z,28.12
2023-02-06T09:04:34.081Z,28.12
2023-02-06T09:05:34.410Z,28.12
2023-02-06T09:06:34.033Z,28.12
2023-02-06T09:07:34.026Z,28.12
2023-02-06T09:08:33.999Z,28.12
2023-02-06T09:09:34.027Z,28.12
2023-02-06T09:10:33.987Z,22.50
2023-02-06T09:11:34.084Z,22.50
2023-02-06T09:12:33.973Z,22.50
2023-02-06T09:13:33.977Z,22.50
2023-02-06T09:14:34.008Z,22.50
2023-02-06T09:15:34.292Z,16.88
2023-02-06T09:16:33.939Z,22.50
2023-02-06T09:17:33.932Z,22.50
2023-02-06T09:18:33.904Z,22.50
2023-02-06T09:19:33.936Z,22.50
2023-02-06T09:20:33.911Z,22.50
2023-02-06T09:21:33.886Z,28.12
2023-02-06T09:22:33.866Z,28.12
2023-02-06T09:23:33.855Z,33.75
2023-02-06T09:24:33.859Z,33.75
2023-02-06T09:25:34.077Z,33.75
2023-02-06T09:26:33.824Z,33.75
2023-02-06T09:27:33.830Z,28.12
2023-02-06T09:28:33.843Z,28.12
2023-02-06T09:29:33.791Z,28.12
2023-02-06T09:30:33.812Z,28.12
2023-02-06T09:31:33.813Z,28.12
2023-02-06T09:32:33.773Z,28.12
2023-02-06T09:33:33.755Z,28.12
2023-02-06T09:34:33.730Z,28.12
2023-02-06T09:35:33.834Z,28.12
2023-02-06T09:36:33.733Z,28.12
2023-02-06T09:37:33.699Z,28.12
2023-02-06T09:38:33.722Z,28.12
2023-02-06T09:39:33.713Z,33.75
2023-02-06T09:40:33.676Z,33.75
2023-02-06T09:41:33.674Z,28.12
2023-02-06T09:42:33.656Z,28.12
2023-02-06T09:43:33.676Z,28.12
2023-02-06T09:44:33.684Z,28.12
2023-02-06T09:45:33.684Z,28.12
2023-02-06T09:46:33.647Z,28.12
2023-02-06T09:47:33.621Z,33.75
2023-02-06T09:48:33.655Z,33.75
2023-02-06T09:49:33.612Z,33.75
2023-02-06T09:50:33.599Z,33.75
2023-02-06T09:51:33.562Z,33.75
2023-02-06T09:52:33.533Z,39.38
2023-02-06T09:53:33.558Z,39.38
2023-02-06T09:54:33.626Z,39.38
2023-02-06T09:55:33.647Z,39.38
2023-02-06T09:56:33.505Z,39.38
2023-02-06T09:57:33.517Z,39.38
2023-02-06T09:58:33.484Z,39.38
2023-02-06T09:59:33.505Z,39.38
2023-02-06T10:00:33.474Z,45.00
2023-02-06T10:01:33.500Z,45.00
2023-02-06T10:02:33.448Z,45.00
2023-02-06T10:03:33.468Z,45.00
2023-02-06T10:04:33.524Z,45.00
2023-02-06T10:05:33.920Z,39.38
2023-02-06T10:06:33.414Z,39.38
2023-02-06T10:07:33.438Z,39.38
2023-02-06T10:08:34.523Z,33.75
2023-02-06T10:09:33.383Z,33.75
2023-02-06T10:10:33.412Z,33.75
2023-02-06T10:11:33.404Z,33.75
2023-02-06T10:12:33.359Z,33.75
2023-02-06T10:13:33.354Z,33.75
2023-02-06T10:14:33.328Z,28.12
2023-02-06T10:15:33.475Z,33.75
2023-02-06T10:16:33.401Z,33.75
2023-02-06T10:17:33.342Z,33.75
2023-02-06T10:18:33.296Z,33.75
2023-02-06T10:19:33.293Z,33.75
2023-02-06T10:20:33.284Z,39.38
2023-02-06T10:21:33.295Z,39.38
2023-02-06T10:22:33.267Z,33.75
2023-02-06T10:23:33.241Z,33.75
2023-02-06T10:24:33.250Z,33.75
2023-02-06T10:25:33.238Z,39.38
2023-02-06T10:26:33.232Z,39.38
2023-02-06T10:27:33.216Z,45.00
2023-02-06T10:28:33.183Z,45.00
2023-02-06T10:29:33.203Z,45.00
2023-02-06T10:30:33.210Z,45.00
2023-02-06T10:31:33.261Z,45.00
2023-02-06T10:32:33.149Z,45.00
2023-02-06T10:33:33.183Z,50.62
2023-02-06T10:34:33.176Z,50.62
2023-02-06T10:35:33.143Z,45.00
2023-02-06T10:36:33.117Z,45.00
2023-02-06T10:37:33.136Z,45.00
2023-02-06T10:38:33.125Z,45.00
2023-02-06T10:39:33.123Z,45.00
2023-02-06T10:40:33.141Z,45.00
2023-02-06T10:41:33.098Z,50.62
2023-02-06T10:42:33.102Z,50.62
2023-02-06T10:43:33.117Z,50.62
2023-02-06T10:44:33.065Z,50.62
2023-02-06T10:45:33.053Z,50.62
2023-02-06T10:46:33.113Z,50.62
2023-02-06T10:47:33.021Z,50.62
2023-02-06T10:48:33.079Z,56.25
2023-02-06T10:49:33.002Z,50.62
2023-02-06T10:50:32.984Z,50.62
2023-02-06T10:51:33.128Z,50.62
2023-02-06T10:52:32.981Z,50.62
2023-02-06T10:53:32.985Z,50.62
2023-02-06T10:54:32.967Z,50.62
2023-02-06T10:55:32.933Z,50.62
2023-02-06T10:56:32.917Z,50.62
2023-02-06T10:57:32.991Z,56.25
2023-02-06T10:58:32.917Z,56.25
2023-02-06T10:59:32.905Z,56.25
2023-02-06T11:00:32.927Z,56.25
2023-02-06T11:01:32.925Z,56.25
2023-02-06T11:02:32.958Z,56.25
2023-02-06T11:03:32.887Z,50.62
2023-02-06T11:04:32.828Z,50.62
2023-02-06T11:05:32.858Z,50.62
2023-02-06T11:06:32.822Z,50.62
2023-02-06T11:07:32.804Z,50.62
2023-02-06T11:08:32.813Z,50.62
2023-02-06T11:09:32.845Z,56.25
2023-02-06T11:10:32.794Z,56.25
2023-02-06T11:11:32.811Z,56.25
2023-02-06T11:12:32.742Z,56.25
2023-02-06T11:13:32.751Z,56.25
2023-02-06T11:14:32.746Z,50.62
2023-02-06T11:15:32.778Z,50.62
2023-02-06T11:16:32.812Z,45.00
2023-02-06T11:17:32.728Z,45.00
2023-02-06T11:18:32.690Z,39.38
2023-02-06T11:19:32.717Z,33.75
2023-02-06T11:20:32.836Z,28.12
2023-02-06T11:21:32.676Z,33.75
2023-02-06T11:22:38.908Z,39.38
2023-02-06T11:23:32.677Z,45.00
2023-02-06T11:24:32.683Z,45.00
2023-02-06T11:25:32.622Z,45.00
2023-02-06T11:26:32.667Z,45.00
2023-02-06T11:27:32.610Z,45.00
2023-02-06T11:28:32.612Z,45.00
2023-02-06T11:29:32.681Z,45.00
2023-02-06T11:30:32.706Z,39.38
2023-02-06T11:31:32.605Z,33.75
2023-02-06T11:32:32.546Z,33.75
2023-02-06T11:33:32.566Z,33.75
2023-02-06T11:34:32.529Z,39.38
2023-02-06T11:35:32.557Z,45.00
2023-02-06T11:36:32.513Z,45.00
2023-02-06T11:37:32.563Z,45.00
2023-02-06T11:38:32.513Z,39.38
2023-02-06T11:39:32.517Z,39.38
2023-02-06T11:40:32.510Z,39.38
2023-02-06T11:41:32.459Z,39.38
2023-02-06T11:42:32.486Z,39.38
2023-02-06T11:43:32.520Z,39.38
2023-02-06T11:44:32.451Z,45.00
2023-02-06T11:45:32.546Z,45.00
2023-02-06T11:46:32.468Z,50.62
2023-02-06T11:47:32.435Z,50.62
2023-02-06T11:48:32.420Z,56.25
2023-02-06T11:49:32.390Z,56.25
2023-02-06T11:50:32.406Z,56.25
2023-02-06T11:51:32.384Z,50.62
2023-02-06T11:52:32.390Z,50.62
2023-02-06T11:53:32.375Z,45.00
2023-02-06T11:54:32.337Z,45.00
2023-02-06T11:55:32.402Z,45.00
2023-02-06T11:56:32.340Z,45.00
2023-02-06T11:57:32.356Z,45.00
2023-02-06T11:58:32.308Z,45.00
2023-02-06T11:59:32.274Z,45.00
2023-02-06T12:00:32.285Z,39.38
2023-02-06T12:01:32.304Z,39.38
2023-02-06T12:02:32.346Z,33.75
2023-02-06T12:03:32.303Z,28.12
2023-02-06T12:04:32.266Z,28.12
2023-02-06T12:05:32.276Z,22.50
2023-02-06T12:06:32.258Z,22.50
2023-02-06T12:07:32.211Z,28.12
2023-02-06T12:08:32.198Z,28.12
2023-02-06T12:09:32.416Z,33.75
2023-02-06T12:10:32.190Z,33.75
2023-02-06T12:11:32.180Z,39.38
2023-02-06T12:12:32.161Z,45.00
2023-02-06T12:13:32.160Z,45.00
2023-02-06T12:14:32.155Z,45.00
2023-02-06T12:15:45.843Z,45.00
2023-02-06T12:16:32.169Z,45.00
2023-02-06T12:17:32.152Z,45.00
2023-02-06T12:18:32.098Z,45.00
2023-02-06T12:19:32.134Z,45.00
2023-02-06T12:20:32.070Z,45.00
2023-02-06T12:21:32.065Z,45.00
2023-02-06T12:22:32.132Z,45.00
2023-02-06T12:23:32.069Z,50.62
2023-02-06T12:24:32.066Z,45.00
2023-02-06T12:25:32.050Z,50.62
2023-02-06T12:26:32.011Z,50.62
2023-02-06T12:27:32.080Z,50.62
2023-02-06T12:28:32.046Z,45.00
2023-02-06T12:29:32.007Z,45.00
2023-02-06T12:30:31.979Z,45.00
2023-02-06T12:31:32.190Z,50.62
2023-02-06T12:32:32.050Z,50.62
2023-02-06T12:33:31.953Z,45.00
2023-02-06T12:34:31.946Z,50.62
2023-02-06T12:35:31.951Z,50.62
2023-02-06T12:36:31.947Z,50.62
2023-02-06T12:37:31.949Z,50.62
2023-02-06T12:38:31.909Z,50.62
2023-02-06T12:39:31.894Z,50.62
2023-02-06T12:40:31.904Z,50.62
2023-02-06T12:41:31.911Z,50.62
2023-02-06T12:42:31.855Z,50.62
2023-02-06T12:43:31.866Z,50.62
2023-02-06T12:44:31.823Z,45.00
2023-02-06T12:45:31.992Z,45.00
2023-02-06T12:46:31.881Z,45.00
2023-02-06T12:47:31.833Z,45.00
2023-02-06T12:48:31.803Z,45.00
2023-02-06T12:49:31.799Z,39.38
2023-02-06T12:50:31.823Z,39.38
2023-02-06T12:51:31.773Z,39.38
2023-02-06T12:52:31.758Z,45.00
2023-02-06T12:53:31.736Z,45.00
2023-02-06T12:54:31.735Z,45.00
2023-02-06T12:55:31.788Z,45.00
2023-02-06T12:56:31.698Z,45.00
2023-02-06T12:57:31.748Z,45.00
2023-02-06T12:58:31.675Z,50.62
2023-02-06T12:59:31.689Z,50.62
2023-02-06T13:00:31.915Z,50.62
2023-02-06T13:01:34.384Z,50.62
2023-02-06T13:02:31.779Z,50.62
2023-02-06T13:03:31.655Z,50.62
2023-02-06T13:04:31.665Z,50.62
2023-02-06T13:05:31.672Z,50.62
2023-02-06T13:06:31.618Z,50.62
2023-02-06T13:07:33.948Z,50.62